Lynn, Nebraska
Current Conditions -  °F | °C
As of 12:30 PM on Saturday 20 Dec 2014 (Local Time) from KHSI Reporting Station
Haze Haze  
Wind Chill: 28°   Ceiling: Unl
Heat Index: 33°   Visibility: 5mi
Dew Point: 30°   Wind: 6mph
Humidity: 89%   Direction: 160°SSE
Pressure: 30.01"   Gusts: NA
Location:  40.4815°N, 97.9942°W
Report Text: KHSI 201830Z AUTO 16005KT 5SM BR SCT002 01/M01 A3001 RMK AO2 T00061011
Loading
Personal Weather Stations






























Interactive Weather Map New forecast layout! Learn more

10-Day Weather Forecast

Advertisements
Track Severe Weather on mobile